Grassy Key, Florida
Current Conditions -  °F | °C
As of 6:53 PM on Sunday 28 Dec 2014 (Local Time) from KMTH Reporting Station
Clear Clear  
Wind Chill: 76°   Ceiling: Unl
Heat Index: 76°   Visibility: 10mi
Dew Point: 70°   Wind: 5mph
Humidity: 82%   Direction: 90°E
Pressure: 30.1"   Gusts: NA
Location:  24.7161°N, 81.0717°W
Report Text: KMTH 282353Z AUTO 09004KT 10SM CLR 24/21 A3010 RMK AO2 SLP193 T02440211 10278 20244 51005 $
Loading
Personal Weather Stations






























Interactive Weather Map New forecast layout! Learn more

10-Day Weather Forecast

Advertisements
Track Severe Weather on mobile